createdAt,value
2023-02-25T00:01:12.523Z,3.50
2023-02-25T00:03:40.654Z,3.50
2023-02-25T00:06:10.096Z,3.50
2023-02-25T00:08:37.040Z,3.50
2023-02-25T00:11:06.519Z,3.40
2023-02-25T00:13:35.074Z,3.40
2023-02-25T00:16:05.839Z,3.40
2023-02-25T00:18:32.611Z,3.40
2023-02-25T00:21:00.168Z,3.40
2023-02-25T00:23:26.948Z,3.40
2023-02-25T00:26:01.150Z,3.40
2023-02-25T00:28:28.048Z,3.50
2023-02-25T00:30:54.950Z,3.50
2023-02-25T00:33:21.753Z,3.50
2023-02-25T00:35:50.351Z,3.40
2023-02-25T00:38:17.840Z,3.40
2023-02-25T00:40:44.570Z,3.40
2023-02-25T00:43:13.962Z,3.40
2023-02-25T00:45:40.759Z,3.40
2023-02-25T00:48:08.436Z,3.40
2023-02-25T00:50:35.565Z,3.40
2023-02-25T00:53:02.449Z,3.40
2023-02-25T00:55:33.512Z,3.40
2023-02-25T00:58:04.629Z,3.40
2023-02-25T01:00:35.907Z,3.30
2023-02-25T01:03:07.410Z,3.30
2023-02-25T01:05:34.200Z,3.30
2023-02-25T01:08:00.964Z,3.30
2023-02-25T01:10:28.366Z,3.30
2023-02-25T01:12:55.066Z,3.30
2023-02-25T01:15:21.765Z,3.20
2023-02-25T01:17:48.407Z,3.20
2023-02-25T01:20:22.361Z,3.30
2023-02-25T01:22:48.993Z,3.30
2023-02-25T01:25:19.088Z,3.30
2023-02-25T01:27:45.780Z,3.40
2023-02-25T01:30:12.619Z,3.40
2023-02-25T01:32:39.498Z,3.40
2023-02-25T01:35:06.358Z,3.30
2023-02-25T01:37:33.082Z,3.40
2023-02-25T01:39:59.752Z,3.40
2023-02-25T01:42:26.441Z,3.40
2023-02-25T01:45:17.948Z,3.40
2023-02-25T01:47:55.006Z,3.40
2023-02-25T01:50:23.932Z,3.30
2023-02-25T01:52:51.950Z,3.30
2023-02-25T01:55:18.789Z,3.30
2023-02-25T01:58:04.753Z,3.30
2023-02-25T02:00:33.481Z,3.30
2023-02-25T02:03:01.342Z,3.20
2023-02-25T02:05:42.641Z,3.30
2023-02-25T02:08:09.725Z,3.30
2023-02-25T02:10:36.448Z,3.30
2023-02-25T02:13:03.165Z,3.20
2023-02-25T02:15:35.513Z,3.30
2023-02-25T02:18:02.868Z,3.20
2023-02-25T02:21:12.898Z,3.20
2023-02-25T02:24:10.906Z,3.10
2023-02-25T02:26:48.252Z,3.10
2023-02-25T02:29:58.714Z,3.10
2023-02-25T02:32:43.906Z,3.10
2023-02-25T02:35:22.578Z,3.10
2023-02-25T02:37:55.071Z,3.10
2023-02-25T02:40:34.505Z,3.20
2023-02-25T02:43:05.486Z,3.20
2023-02-25T02:45:51.867Z,3.20
2023-02-25T02:48:44.560Z,3.30
2023-02-25T02:51:32.088Z,3.20
2023-02-25T02:54:09.702Z,3.20
2023-02-25T02:56:43.421Z,3.20
2023-02-25T02:59:25.983Z,3.20
2023-02-25T03:01:54.889Z,3.20
2023-02-25T03:04:27.995Z,3.10
2023-02-25T03:06:59.989Z,3.10
2023-02-25T03:09:38.334Z,3.20
2023-02-25T03:12:05.215Z,3.10
2023-02-25T03:14:31.849Z,3.20
2023-02-25T03:17:35.412Z,3.20
2023-02-25T03:20:11.566Z,3.20
2023-02-25T03:23:00.361Z,3.10
2023-02-25T03:25:55.062Z,3.10
2023-02-25T03:28:26.213Z,3.10
2023-02-25T03:31:07.787Z,3.00
2023-02-25T03:33:56.291Z,3.00
2023-02-25T03:36:36.586Z,3.00
2023-02-25T03:39:23.479Z,2.90
2023-02-25T03:41:54.297Z,2.90
2023-02-25T03:44:52.272Z,2.90
2023-02-25T03:47:27.391Z,2.80
2023-02-25T03:50:21.773Z,2.80
2023-02-25T03:53:05.870Z,2.80
2023-02-25T03:55:32.984Z,2.70
2023-02-25T03:57:59.688Z,2.70
2023-02-25T04:00:56.106Z,2.70
2023-02-25T04:03:33.742Z,2.70
2023-02-25T04:06:10.251Z,2.60
2023-02-25T04:08:36.952Z,2.60
2023-02-25T04:11:03.865Z,2.60
2023-02-25T04:13:30.518Z,2.60
2023-02-25T04:15:57.227Z,2.60
2023-02-25T04:21:09.888Z,2.60
2023-02-25T04:23:36.969Z,2.60
2023-02-25T04:26:34.099Z,2.60
2023-02-25T04:29:01.177Z,2.60
2023-02-25T04:31:28.015Z,2.60
2023-02-25T04:33:58.259Z,2.50
2023-02-25T04:36:29.131Z,2.50
2023-02-25T04:39:02.476Z,2.50
2023-02-25T04:41:31.827Z,2.40
2023-02-25T04:43:59.567Z,2.50
2023-02-25T04:46:26.669Z,2.50
2023-02-25T04:48:53.509Z,2.40
2023-02-25T04:51:26.626Z,2.50
2023-02-25T04:53:53.408Z,2.50
2023-02-25T04:56:20.493Z,2.50
2023-02-25T04:58:53.937Z,2.50
2023-02-25T05:01:29.068Z,2.50
2023-02-25T05:03:57.001Z,2.50
2023-02-25T05:06:42.255Z,2.50
2023-02-25T05:09:10.453Z,2.50
2023-02-25T05:11:37.258Z,2.50
2023-02-25T05:14:11.239Z,2.50
2023-02-25T05:16:39.133Z,2.40
2023-02-25T05:19:14.862Z,2.50
2023-02-25T05:21:41.475Z,2.40
2023-02-25T05:24:08.453Z,2.40
2023-02-25T05:26:50.664Z,2.40
2023-02-25T05:29:17.340Z,2.40
2023-02-25T05:31:44.320Z,2.40
2023-02-25T05:34:21.520Z,2.40
2023-02-25T05:36:56.127Z,2.30
2023-02-25T05:39:23.021Z,2.40
2023-02-25T05:41:51.598Z,2.40
2023-02-25T05:47:16.865Z,2.40
2023-02-25T05:49:50.064Z,2.50
2023-02-25T05:52:28.549Z,2.50
2023-02-25T05:54:55.215Z,2.50
2023-02-25T05:57:24.164Z,2.50
2023-02-25T05:59:51.281Z,2.50
2023-02-25T06:02:17.986Z,2.50
2023-02-25T06:04:50.930Z,2.40
2023-02-25T06:07:27.565Z,2.40
2023-02-25T06:09:55.086Z,2.40
2023-02-25T06:12:21.731Z,2.40
2023-02-25T06:14:54.433Z,2.30
2023-02-25T06:17:21.174Z,2.20
2023-02-25T06:19:48.198Z,2.20
2023-02-25T06:22:15.081Z,2.20
2023-02-25T06:24:42.220Z,2.20
2023-02-25T06:27:09.220Z,2.20
2023-02-25T06:29:36.485Z,2.20
2023-02-25T06:32:17.206Z,2.20
2023-02-25T06:34:44.138Z,2.20
2023-02-25T06:37:11.196Z,2.30
2023-02-25T06:39:49.695Z,2.30
2023-02-25T06:42:16.386Z,2.20
2023-02-25T06:44:43.008Z,2.30
2023-02-25T06:47:09.837Z,2.30
2023-02-25T06:49:36.681Z,2.30
2023-02-25T06:52:10.075Z,2.40
2023-02-25T06:54:36.851Z,2.30
2023-02-25T06:57:04.427Z,2.40
2023-02-25T06:59:39.485Z,2.40
2023-02-25T07:02:06.790Z,2.40
2023-02-25T07:04:33.692Z,2.50
2023-02-25T07:07:02.673Z,2.60
2023-02-25T07:09:29.746Z,2.70
2023-02-25T07:11:56.934Z,2.70
2023-02-25T07:14:35.670Z,2.70
2023-02-25T07:17:03.789Z,2.80
2023-02-25T07:19:30.768Z,2.80
2023-02-25T07:21:57.625Z,2.70
2023-02-25T07:24:24.634Z,2.60
2023-02-25T07:26:51.632Z,2.50
2023-02-25T07:29:27.316Z,2.50
2023-02-25T07:31:54.171Z,2.60
2023-02-25T07:34:20.944Z,2.70
2023-02-25T07:36:47.844Z,2.80
2023-02-25T07:39:15.054Z,2.90
2023-02-25T07:41:42.018Z,2.90
2023-02-25T07:44:09.400Z,3.00
2023-02-25T07:46:36.753Z,3.00
2023-02-25T07:49:06.405Z,2.80
2023-02-25T07:51:33.198Z,2.80
2023-02-25T07:54:00.617Z,2.80
2023-02-25T07:56:29.494Z,2.90
2023-02-25T07:58:56.593Z,2.80
2023-02-25T08:01:34.367Z,2.80
2023-02-25T08:04:08.562Z,3.10
2023-02-25T08:06:37.705Z,3.30
2023-02-25T08:09:11.119Z,3.40
2023-02-25T08:11:38.356Z,3.60
2023-02-25T08:14:05.801Z,3.50
2023-02-25T08:16:37.612Z,3.60
2023-02-25T08:19:06.301Z,3.60
2023-02-25T08:21:33.484Z,3.60
2023-02-25T08:24:00.206Z,3.60
2023-02-25T08:26:27.573Z,3.50
2023-02-25T08:29:01.077Z,3.50
2023-02-25T08:31:28.484Z,3.70
2023-02-25T08:33:57.006Z,3.70
2023-02-25T08:36:26.820Z,3.90
2023-02-25T08:38:55.124Z,4.00
2023-02-25T08:41:23.206Z,4.00
2023-02-25T08:43:54.543Z,4.10
2023-02-25T08:46:23.372Z,4.50
2023-02-25T08:48:52.325Z,4.60
2023-02-25T08:51:20.594Z,4.90
2023-02-25T08:53:47.634Z,4.90
2023-02-25T08:56:16.435Z,5.10
2023-02-25T08:58:43.886Z,4.90
2023-02-25T09:01:14.244Z,5.00
2023-02-25T09:03:51.201Z,5.00
2023-02-25T09:06:19.404Z,4.70
2023-02-25T09:08:46.160Z,4.90
2023-02-25T09:11:12.922Z,4.90
2023-02-25T09:13:39.682Z,4.90
2023-02-25T09:16:06.932Z,4.70
2023-02-25T09:18:34.021Z,4.60
2023-02-25T09:21:00.944Z,4.50
2023-02-25T09:23:27.781Z,4.60
2023-02-25T09:25:54.541Z,4.60
2023-02-25T09:28:22.913Z,4.50
2023-02-25T09:30:51.121Z,4.70
2023-02-25T09:33:17.913Z,4.80
2023-02-25T09:35:45.431Z,4.80
2023-02-25T09:38:13.088Z,4.70
2023-02-25T09:40:45.231Z,4.70
2023-02-25T09:43:39.624Z,4.60
2023-02-25T09:46:11.957Z,4.80
2023-02-25T09:48:41.452Z,4.60
2023-02-25T09:51:24.196Z,4.40
2023-02-25T09:54:10.528Z,4.40
2023-02-25T09:56:38.959Z,4.70
2023-02-25T09:59:11.640Z,4.80
2023-02-25T10:02:00.411Z,4.70
2023-02-25T10:04:33.986Z,5.00
2023-02-25T10:07:32.725Z,5.10
2023-02-25T10:10:09.439Z,5.10
2023-02-25T10:12:39.114Z,5.60
2023-02-25T10:15:26.318Z,5.60
2023-02-25T10:18:22.700Z,5.20
2023-02-25T10:21:30.580Z,5.10
2023-02-25T10:24:05.912Z,5.00
2023-02-25T10:26:39.509Z,4.80
2023-02-25T10:29:13.050Z,4.90
2023-02-25T10:31:46.643Z,5.00
2023-02-25T10:34:23.322Z,5.20
2023-02-25T10:37:03.604Z,5.00
2023-02-25T10:39:33.702Z,5.10
2023-02-25T10:42:00.752Z,4.90
2023-02-25T10:44:27.476Z,5.10
2023-02-25T10:47:04.028Z,5.10
2023-02-25T10:49:38.138Z,4.90
2023-02-25T10:52:13.746Z,4.90
2023-02-25T10:54:51.950Z,5.20
2023-02-25T10:57:42.893Z,5.10
2023-02-25T11:00:23.265Z,5.00
2023-02-25T11:02:51.393Z,5.00
2023-02-25T11:05:33.381Z,5.00
2023-02-25T11:08:31.728Z,5.10
2023-02-25T11:11:03.313Z,5.10
2023-02-25T11:13:34.896Z,4.90
2023-02-25T11:16:12.372Z,4.80
2023-02-25T11:18:54.854Z,4.60
2023-02-25T11:21:31.316Z,4.40
2023-02-25T11:24:12.092Z,4.20
2023-02-25T11:26:43.943Z,4.40
2023-02-25T11:29:21.520Z,4.30
2023-02-25T11:31:59.696Z,4.60
2023-02-25T11:34:30.749Z,4.40
2023-02-25T11:37:36.152Z,4.50
2023-02-25T11:40:19.471Z,4.40
2023-02-25T11:43:01.234Z,4.30
2023-02-25T11:45:33.884Z,4.40
2023-02-25T11:48:07.972Z,4.20
2023-02-25T11:50:45.411Z,4.20
2023-02-25T11:53:39.780Z,4.20
2023-02-25T11:56:11.860Z,4.30
2023-02-25T11:59:12.652Z,4.60
2023-02-25T12:01:52.185Z,4.60
2023-02-25T12:04:30.468Z,5.00
2023-02-25T12:07:08.997Z,5.30
2023-02-25T12:10:07.995Z,5.20
2023-02-25T12:12:52.521Z,5.20
2023-02-25T12:16:02.882Z,4.80
2023-02-25T12:18:54.337Z,4.70
2023-02-25T12:21:33.071Z,4.30
2023-02-25T12:24:37.652Z,4.20
2023-02-25T12:27:40.086Z,4.10
2023-02-25T12:30:31.701Z,4.00
2023-02-25T12:33:26.336Z,3.90
2023-02-25T12:36:03.653Z,3.70
2023-02-25T12:39:07.557Z,3.60
2023-02-25T12:41:55.227Z,3.50
2023-02-25T12:44:40.720Z,3.70
2023-02-25T12:47:34.872Z,3.50
2023-02-25T12:50:32.898Z,3.50
2023-02-25T12:53:21.235Z,3.50
2023-02-25T12:56:13.788Z,3.50
2023-02-25T12:58:50.367Z,3.40
2023-02-25T13:01:28.959Z,3.40
2023-02-25T13:04:10.758Z,3.40
2023-02-25T13:07:18.668Z,3.40
2023-02-25T13:09:53.741Z,3.50
2023-02-25T13:12:47.740Z,3.60
2023-02-25T13:15:22.551Z,3.90
2023-02-25T13:17:57.414Z,4.10
2023-02-25T13:20:54.125Z,4.30
2023-02-25T13:23:34.049Z,4.30
2023-02-25T13:26:00.658Z,4.50
2023-02-25T13:28:49.242Z,4.50
2023-02-25T13:31:49.571Z,4.30
2023-02-25T13:34:31.072Z,4.40
2023-02-25T13:37:06.830Z,4.20
2023-02-25T13:39:44.436Z,4.20
2023-02-25T13:42:25.640Z,4.30
2023-02-25T13:44:58.110Z,4.40
2023-02-25T13:47:51.992Z,4.50
2023-02-25T13:50:37.747Z,4.50
2023-02-25T13:53:25.523Z,4.70
2023-02-25T13:56:07.290Z,5.30
2023-02-25T13:59:14.842Z,5.50
2023-02-25T14:01:56.868Z,5.90
2023-02-25T14:04:44.865Z,5.90
2023-02-25T14:07:47.077Z,6.00
2023-02-25T14:10:48.162Z,5.80
2023-02-25T14:13:36.506Z,5.70
2023-02-25T14:16:13.501Z,5.40
2023-02-25T14:18:44.235Z,5.50
2023-02-25T14:21:35.345Z,5.60
2023-02-25T14:24:29.636Z,5.50
2023-02-25T14:27:11.529Z,5.70
2023-02-25T14:30:01.350Z,5.40
2023-02-25T14:32:46.468Z,5.40
2023-02-25T14:35:42.337Z,5.10
2023-02-25T14:38:12.387Z,5.30
2023-02-25T14:41:00.591Z,5.20
2023-02-25T14:43:35.164Z,5.00
2023-02-25T14:46:22.419Z,4.90
2023-02-25T14:49:12.506Z,4.90
2023-02-25T14:52:16.342Z,5.10
2023-02-25T14:55:04.930Z,5.20
2023-02-25T14:57:40.264Z,4.90
2023-02-25T15:00:42.561Z,5.00
2023-02-25T15:03:46.270Z,4.80
2023-02-25T15:06:19.512Z,4.50
2023-02-25T15:09:31.476Z,4.50
2023-02-25T15:12:01.308Z,4.40
2023-02-25T15:14:42.037Z,4.30
2023-02-25T15:17:30.389Z,4.30
2023-02-25T15:20:21.243Z,4.40
2023-02-25T15:23:07.011Z,4.30
2023-02-25T15:25:50.589Z,4.50
2023-02-25T15:28:29.466Z,4.30
2023-02-25T15:31:01.957Z,4.30
2023-02-25T15:33:42.017Z,4.40
2023-02-25T15:36:14.432Z,4.40
2023-02-25T15:38:48.452Z,4.30
2023-02-25T15:41:27.442Z,4.30
2023-02-25T15:43:54.229Z,4.40
2023-02-25T15:46:36.574Z,4.50
2023-02-25T15:49:12.321Z,4.50
2023-02-25T15:51:46.312Z,4.60
2023-02-25T15:54:28.540Z,4.70
2023-02-25T15:56:57.062Z,4.70
2023-02-25T15:59:44.153Z,4.50
2023-02-25T16:02:28.987Z,4.40
2023-02-25T16:05:00.641Z,4.30
2023-02-25T16:07:40.236Z,4.30
2023-02-25T16:10:25.285Z,4.20
2023-02-25T16:12:55.666Z,4.10
2023-02-25T16:15:37.722Z,4.00
2023-02-25T16:18:45.305Z,4.10
2023-02-25T16:21:30.219Z,3.90
2023-02-25T16:23:57.601Z,4.00
2023-02-25T16:26:41.660Z,4.00
2023-02-25T16:29:25.530Z,3.90
2023-02-25T16:32:02.830Z,3.90
2023-02-25T16:34:54.922Z,3.80
2023-02-25T16:37:37.705Z,3.80
2023-02-25T16:40:05.258Z,3.80
2023-02-25T16:42:33.449Z,3.70
2023-02-25T16:45:05.123Z,3.60
2023-02-25T16:47:39.000Z,3.60
2023-02-25T16:50:13.831Z,3.70
2023-02-25T16:52:50.894Z,3.60
2023-02-25T16:55:30.287Z,3.60
2023-02-25T16:58:06.674Z,3.70
2023-02-25T17:00:34.420Z,3.70
2023-02-25T17:03:04.181Z,3.60
2023-02-25T17:05:34.187Z,3.50
2023-02-25T17:08:06.027Z,3.40
2023-02-25T17:10:34.673Z,3.40
2023-02-25T17:13:11.000Z,3.30
2023-02-25T17:15:37.864Z,3.20
2023-02-25T17:18:33.010Z,3.20
2023-02-25T17:21:29.670Z,3.10
2023-02-25T17:24:00.399Z,3.00
2023-02-25T17:26:38.813Z,2.80
2023-02-25T17:29:10.916Z,2.60
2023-02-25T17:32:05.551Z,2.40
2023-02-25T17:34:44.679Z,2.10
2023-02-25T17:37:13.141Z,2.00
2023-02-25T17:39:40.918Z,1.90
2023-02-25T17:42:32.646Z,1.90
2023-02-25T17:45:01.118Z,1.80
2023-02-25T17:47:33.653Z,1.60
2023-02-25T17:50:13.556Z,1.50
2023-02-25T17:52:40.275Z,1.40
2023-02-25T17:55:21.636Z,1.40
2023-02-25T17:57:48.366Z,1.20
2023-02-25T18:00:18.626Z,1.20
2023-02-25T18:02:47.387Z,1.30
2023-02-25T18:05:14.061Z,1.30
2023-02-25T18:07:47.400Z,1.30
2023-02-25T18:10:23.143Z,1.30
2023-02-25T18:12:50.593Z,1.30
2023-02-25T18:15:27.128Z,1.30
2023-02-25T18:18:01.390Z,1.20
2023-02-25T18:20:30.265Z,1.20
2023-02-25T18:23:21.122Z,1.20
2023-02-25T18:26:07.964Z,1.20
2023-02-25T18:28:34.858Z,1.20
2023-02-25T18:31:01.622Z,1.20
2023-02-25T18:33:28.741Z,1.20
2023-02-25T18:35:57.324Z,1.20
2023-02-25T18:38:26.466Z,1.10
2023-02-25T18:40:54.515Z,1.10
2023-02-25T18:43:24.243Z,1.20
2023-02-25T18:45:51.028Z,1.20
2023-02-25T18:48:17.731Z,1.20
2023-02-25T18:50:44.667Z,1.20
2023-02-25T18:53:17.236Z,1.20
2023-02-25T18:55:44.081Z,1.20
2023-02-25T18:58:13.700Z,1.20
2023-02-25T19:00:41.213Z,1.10
2023-02-25T19:03:10.046Z,1.10
2023-02-25T19:05:38.219Z,1.00
2023-02-25T19:08:16.206Z,1.00
2023-02-25T19:10:44.146Z,1.00
2023-02-25T19:13:21.061Z,1.00
2023-02-25T19:15:47.947Z,1.00
2023-02-25T19:18:16.799Z,1.00
2023-02-25T19:20:44.252Z,1.00
2023-02-25T19:23:13.964Z,0.90
2023-02-25T19:25:42.292Z,1.00
2023-02-25T19:28:10.108Z,0.90
2023-02-25T19:30:41.499Z,0.90
2023-02-25T19:33:10.160Z,0.90
2023-02-25T19:35:40.313Z,0.80
2023-02-25T19:38:08.580Z,0.80
2023-02-25T19:40:36.765Z,0.80
2023-02-25T19:43:04.889Z,0.80
2023-02-25T19:45:32.456Z,0.80
2023-02-25T19:47:59.742Z,0.80
2023-02-25T19:50:27.000Z,0.70
2023-02-25T19:52:55.399Z,0.80
2023-02-25T19:55:22.971Z,0.80
2023-02-25T19:57:50.154Z,0.70
2023-02-25T20:00:21.354Z,0.60
2023-02-25T20:02:48.839Z,0.60
2023-02-25T20:05:15.637Z,0.60
2023-02-25T20:07:43.118Z,0.60
2023-02-25T20:10:12.894Z,0.60
2023-02-25T20:12:44.209Z,0.60
2023-02-25T20:15:12.653Z,0.50
2023-02-25T20:17:41.163Z,0.40
2023-02-25T20:20:09.283Z,0.40
2023-02-25T20:22:37.216Z,0.40
2023-02-25T20:25:04.590Z,0.40
2023-02-25T20:27:31.405Z,0.30
2023-02-25T20:29:58.145Z,0.30
2023-02-25T20:32:24.973Z,0.30
2023-02-25T20:34:52.049Z,0.30
2023-02-25T20:37:23.466Z,0.20
2023-02-25T20:39:57.928Z,0.20
2023-02-25T20:42:30.625Z,0.30
2023-02-25T20:44:58.387Z,0.30
2023-02-25T20:47:31.068Z,0.20
2023-02-25T20:49:58.776Z,0.30
2023-02-25T20:52:26.908Z,0.20
2023-02-25T20:54:54.130Z,0.20
2023-02-25T20:57:28.496Z,0.20
2023-02-25T20:59:55.439Z,0.10
2023-02-25T21:02:22.635Z,0.10
2023-02-25T21:04:50.402Z,0.10
2023-02-25T21:07:17.220Z,0.10
2023-02-25T21:09:47.020Z,0.10
2023-02-25T21:12:14.187Z,0.10
2023-02-25T21:14:40.936Z,0.10
2023-02-25T21:17:13.941Z,0.10
2023-02-25T21:19:40.654Z,0.10
2023-02-25T21:22:08.613Z,0.10
2023-02-25T21:24:36.694Z,0.10
2023-02-25T21:27:07.206Z,0.10
2023-02-25T21:29:36.292Z,0.10
2023-02-25T21:32:03.077Z,0.00
2023-02-25T21:34:29.968Z,0.00
2023-02-25T21:36:58.409Z,0.00
2023-02-25T21:39:32.032Z,0.00
2023-02-25T21:41:58.753Z,0.00
2023-02-25T21:44:25.490Z,-0.10
2023-02-25T21:46:52.305Z,-0.10
2023-02-25T21:49:19.097Z,-0.10
2023-02-25T21:51:45.879Z,-0.10
2023-02-25T21:54:13.746Z,0.00
2023-02-25T21:56:40.694Z,-0.10
2023-02-25T21:59:07.797Z,-0.10
2023-02-25T22:01:37.405Z,-0.20
2023-02-25T22:04:04.939Z,-0.20
2023-02-25T22:06:36.955Z,-0.30
2023-02-25T22:09:04.129Z,-0.40
2023-02-25T22:11:33.790Z,-0.40
2023-02-25T22:14:02.437Z,-0.50
2023-02-25T22:16:29.584Z,-0.50
2023-02-25T22:18:57.202Z,-0.60
2023-02-25T22:21:29.209Z,-0.60
2023-02-25T22:23:58.891Z,-0.70
2023-02-25T22:26:28.708Z,-0.70
2023-02-25T22:29:00.229Z,-0.70
2023-02-25T22:31:27.920Z,-0.70
2023-02-25T22:33:56.651Z,-0.60
2023-02-25T22:36:24.120Z,-0.70
2023-02-25T22:38:51.052Z,-0.70
2023-02-25T22:41:23.580Z,-0.80
2023-02-25T22:43:50.876Z,-0.80
2023-02-25T22:46:24.914Z,-0.80
2023-02-25T22:48:52.670Z,-0.80
2023-02-25T22:51:34.570Z,-0.80
2023-02-25T22:54:04.769Z,-0.80
2023-02-25T22:56:31.385Z,-0.90
2023-02-25T22:58:58.072Z,-0.90
2023-02-25T23:01:25.326Z,-1.00
2023-02-25T23:03:53.272Z,-1.00
2023-02-25T23:06:24.917Z,-1.00
2023-02-25T23:08:55.871Z,-1.00
2023-02-25T23:11:42.349Z,-1.10
2023-02-25T23:14:09.727Z,-1.10
2023-02-25T23:16:42.484Z,-1.10
2023-02-25T23:19:13.900Z,-1.10
2023-02-25T23:21:43.913Z,-1.10
2023-02-25T23:24:17.362Z,-1.10
2023-02-25T23:26:45.689Z,-1.10
2023-02-25T23:29:13.209Z,-1.20
2023-02-25T23:31:45.626Z,-1.20
2023-02-25T23:34:21.514Z,-1.20
2023-02-25T23:36:48.719Z,-1.20
2023-02-25T23:39:16.172Z,-1.30
2023-02-25T23:41:42.938Z,-1.20
2023-02-25T23:44:11.810Z,-1.30
2023-02-25T23:46:39.450Z,-1.30
2023-02-25T23:49:07.415Z,-1.30
2023-02-25T23:51:37.678Z,-1.30
2023-02-25T23:54:06.079Z,-1.40
2023-02-25T23:56:33.683Z,-1.30
2023-02-25T23:59:00.716Z,-1.40
